sensor_id;sensor_type;location;lat;lon;timestamp;temperature;humidity
22813;DHT22;11573;51.334;3.244;2022-07-06T00:00:03;13.10;99.90
22813;DHT22;11573;51.334;3.244;2022-07-06T00:02:30;13.10;99.90
22813;DHT22;11573;51.334;3.244;2022-07-06T00:04:57;13.10;99.90
22813;DHT22;11573;51.334;3.244;2022-07-06T00:07:24;13.10;99.90
22813;DHT22;11573;51.334;3.244;2022-07-06T00:09:51;13.00;99.90
22813;DHT22;11573;51.334;3.244;2022-07-06T00:12:18;13.00;99.90
22813;DHT22;11573;51.334;3.244;2022-07-06T00:14:45;13.00;99.90
22813;DHT22;11573;51.334;3.244;2022-07-06T00:17:12;12.90;99.90
22813;DHT22;11573;51.334;3.244;2022-07-06T00:19:39;12.90;99.90
22813;DHT22;11573;51.334;3.244;2022-07-06T00:22:07;12.80;99.90
22813;DHT22;11573;51.334;3.244;2022-07-06T00:24:34;12.80;99.90
22813;DHT22;11573;51.334;3.244;2022-07-06T00:27:01;12.80;99.90
22813;DHT22;11573;51.334;3.244;2022-07-06T00:29:28;12.70;99.90
22813;DHT22;11573;51.334;3.244;2022-07-06T00:31:57;12.70;99.90
22813;DHT22;11573;51.334;3.244;2022-07-06T00:34:24;12.70;99.90
22813;DHT22;11573;51.334;3.244;2022-07-06T00:36:51;12.60;99.90
22813;DHT22;11573;51.334;3.244;2022-07-06T00:39:18;12.60;99.90
22813;DHT22;11573;51.334;3.244;2022-07-06T00:41:46;12.60;99.90
22813;DHT22;11573;51.334;3.244;2022-07-06T00:44:13;12.60;99.90
22813;DHT22;11573;51.334;3.244;2022-07-06T00:46:40;12.50;99.90
22813;DHT22;11573;51.334;3.244;2022-07-06T00:49:07;12.50;99.90
22813;DHT22;11573;51.334;3.244;2022-07-06T00:51:54;12.50;99.90
22813;DHT22;11573;51.334;3.244;2022-07-06T00:54:21;12.50;99.90
22813;DHT22;11573;51.334;3.244;2022-07-06T00:56:48;12.40;99.90
22813;DHT22;11573;51.334;3.244;2022-07-06T00:59:15;12.40;99.90
22813;DHT22;11573;51.334;3.244;2022-07-06T01:01:42;12.40;99.90
22813;DHT22;11573;51.334;3.244;2022-07-06T01:04:09;12.40;99.90
22813;DHT22;11573;51.334;3.244;2022-07-06T01:06:37;12.30;99.90
22813;DHT22;11573;51.334;3.244;2022-07-06T01:09:05;12.30;99.90
22813;DHT22;11573;51.334;3.244;2022-07-06T01:11:32;12.30;99.90
22813;DHT22;11573;51.334;3.244;2022-07-06T01:14:00;12.30;99.90
22813;DHT22;11573;51.334;3.244;2022-07-06T01:16:27;12.30;99.90
22813;DHT22;11573;51.334;3.244;2022-07-06T01:18:54;12.30;99.90
22813;DHT22;11573;51.334;3.244;2022-07-06T01:21:22;12.20;99.90
22813;DHT22;11573;51.334;3.244;2022-07-06T01:23:49;12.20;99.90
22813;DHT22;11573;51.334;3.244;2022-07-06T01:26:19;12.10;99.90
22813;DHT22;11573;51.334;3.244;2022-07-06T01:28:49;12.10;99.90
22813;DHT22;11573;51.334;3.244;2022-07-06T01:31:23;12.10;99.90
22813;DHT22;11573;51.334;3.244;2022-07-06T01:33:52;12.10;99.90
22813;DHT22;11573;51.334;3.244;2022-07-06T01:36:19;12.10;99.90
22813;DHT22;11573;51.334;3.244;2022-07-06T01:38:51;12.10;99.90
22813;DHT22;11573;51.334;3.244;2022-07-06T01:41:19;12.00;99.90
22813;DHT22;11573;51.334;3.244;2022-07-06T01:43:47;12.00;99.90
22813;DHT22;11573;51.334;3.244;2022-07-06T01:46:15;12.10;99.90
22813;DHT22;11573;51.334;3.244;2022-07-06T01:48:42;12.00;99.90
22813;DHT22;11573;51.334;3.244;2022-07-06T01:51:10;12.00;99.90
22813;DHT22;11573;51.334;3.244;2022-07-06T01:53:39;12.00;99.90
22813;DHT22;11573;51.334;3.244;2022-07-06T01:56:07;11.90;99.90
22813;DHT22;11573;51.334;3.244;2022-07-06T01:58:35;11.90;99.90
22813;DHT22;11573;51.334;3.244;2022-07-06T02:01:09;11.90;99.90
22813;DHT22;11573;51.334;3.244;2022-07-06T02:03:37;11.90;99.90
22813;DHT22;11573;51.334;3.244;2022-07-06T02:06:05;11.90;99.90
22813;DHT22;11573;51.334;3.244;2022-07-06T02:08:33;11.90;99.90
22813;DHT22;11573;51.334;3.244;2022-07-06T02:11:05;11.90;99.90
22813;DHT22;11573;51.334;3.244;2022-07-06T02:13:35;11.80;99.90
22813;DHT22;11573;51.334;3.244;2022-07-06T02:16:05;11.80;99.90
22813;DHT22;11573;51.334;3.244;2022-07-06T02:18:32;11.80;99.90
22813;DHT22;11573;51.334;3.244;2022-07-06T02:20:59;11.70;99.90
22813;DHT22;11573;51.334;3.244;2022-07-06T02:23:27;11.70;99.90
22813;DHT22;11573;51.334;3.244;2022-07-06T02:25:54;11.80;99.90
22813;DHT22;11573;51.334;3.244;2022-07-06T02:28:22;11.80;99.90
22813;DHT22;11573;51.334;3.244;2022-07-06T02:30:49;11.80;99.90
22813;DHT22;11573;51.334;3.244;2022-07-06T02:33:16;11.70;99.90
22813;DHT22;11573;51.334;3.244;2022-07-06T02:35:44;11.80;99.90
22813;DHT22;11573;51.334;3.244;2022-07-06T02:38:12;11.70;99.90
22813;DHT22;11573;51.334;3.244;2022-07-06T02:40:39;11.70;99.90
22813;DHT22;11573;51.334;3.244;2022-07-06T02:43:06;11.70;99.90
22813;DHT22;11573;51.334;3.244;2022-07-06T02:45:35;11.60;99.90
22813;DHT22;11573;51.334;3.244;2022-07-06T02:48:03;11.60;99.90
22813;DHT22;11573;51.334;3.244;2022-07-06T02:50:31;11.60;99.90
22813;DHT22;11573;51.334;3.244;2022-07-06T02:52:58;11.50;99.90
22813;DHT22;11573;51.334;3.244;2022-07-06T02:55:26;11.50;99.90
22813;DHT22;11573;51.334;3.244;2022-07-06T02:57:53;11.50;99.90
22813;DHT22;11573;51.334;3.244;2022-07-06T03:00:21;11.60;99.90
22813;DHT22;11573;51.334;3.244;2022-07-06T03:02:49;11.60;99.90
22813;DHT22;11573;51.334;3.244;2022-07-06T03:05:16;11.60;99.90
22813;DHT22;11573;51.334;3.244;2022-07-06T03:07:43;11.60;99.90
22813;DHT22;11573;51.334;3.244;2022-07-06T03:10:10;11.60;99.90
22813;DHT22;11573;51.334;3.244;2022-07-06T03:12:38;11.60;99.90
22813;DHT22;11573;51.334;3.244;2022-07-06T03:15:06;11.60;99.90
22813;DHT22;11573;51.334;3.244;2022-07-06T03:17:37;11.50;99.90
22813;DHT22;11573;51.334;3.244;2022-07-06T03:20:05;11.60;99.90
22813;DHT22;11573;51.334;3.244;2022-07-06T03:22:32;11.60;99.90
22813;DHT22;11573;51.334;3.244;2022-07-06T03:25:00;11.50;99.90
22813;DHT22;11573;51.334;3.244;2022-07-06T03:27:28;11.60;99.90
22813;DHT22;11573;51.334;3.244;2022-07-06T03:29:55;11.50;99.90
22813;DHT22;11573;51.334;3.244;2022-07-06T03:32:22;11.50;99.90
22813;DHT22;11573;51.334;3.244;2022-07-06T03:34:50;11.50;99.90
22813;DHT22;11573;51.334;3.244;2022-07-06T03:37:17;11.50;99.90
22813;DHT22;11573;51.334;3.244;2022-07-06T03:39:44;11.50;99.90
22813;DHT22;11573;51.334;3.244;2022-07-06T03:42:11;11.50;99.90
22813;DHT22;11573;51.334;3.244;2022-07-06T03:44:38;11.40;99.90
22813;DHT22;11573;51.334;3.244;2022-07-06T03:47:05;11.40;99.90
22813;DHT22;11573;51.334;3.244;2022-07-06T03:49:32;11.40;99.90
22813;DHT22;11573;51.334;3.244;2022-07-06T03:52:01;11.40;99.90
22813;DHT22;11573;51.334;3.244;2022-07-06T03:54:34;11.50;99.90
22813;DHT22;11573;51.334;3.244;2022-07-06T03:57:04;11.50;99.90
22813;DHT22;11573;51.334;3.244;2022-07-06T03:59:32;11.60;99.90
22813;DHT22;11573;51.334;3.244;2022-07-06T04:01:59;11.60;99.90
22813;DHT22;11573;51.334;3.244;2022-07-06T04:04:26;11.70;99.90
22813;DHT22;11573;51.334;3.244;2022-07-06T04:06:54;11.80;99.90
22813;DHT22;11573;51.334;3.244;2022-07-06T04:09:21;11.90;99.90
22813;DHT22;11573;51.334;3.244;2022-07-06T04:11:48;11.90;99.90
22813;DHT22;11573;51.334;3.244;2022-07-06T04:14:16;11.90;99.90
22813;DHT22;11573;51.334;3.244;2022-07-06T04:16:43;11.90;99.90
22813;DHT22;11573;51.334;3.244;2022-07-06T04:19:10;12.00;99.90
22813;DHT22;11573;51.334;3.244;2022-07-06T04:21:37;12.10;99.90
22813;DHT22;11573;51.334;3.244;2022-07-06T04:24:04;12.30;99.90
22813;DHT22;11573;51.334;3.244;2022-07-06T04:26:33;12.60;99.90
22813;DHT22;11573;51.334;3.244;2022-07-06T04:29:00;12.70;99.90
22813;DHT22;11573;51.334;3.244;2022-07-06T04:31:28;12.70;99.90
22813;DHT22;11573;51.334;3.244;2022-07-06T04:33:56;12.90;99.90
22813;DHT22;11573;51.334;3.244;2022-07-06T04:36:24;13.10;99.90
22813;DHT22;11573;51.334;3.244;2022-07-06T04:38:52;13.60;99.90
22813;DHT22;11573;51.334;3.244;2022-07-06T04:41:20;14.60;99.90
22813;DHT22;11573;51.334;3.244;2022-07-06T04:43:49;15.90;99.90
22813;DHT22;11573;51.334;3.244;2022-07-06T04:46:17;17.10;99.90
22813;DHT22;11573;51.334;3.244;2022-07-06T04:48:48;17.90;99.90
22813;DHT22;11573;51.334;3.244;2022-07-06T04:51:21;18.30;99.90
22813;DHT22;11573;51.334;3.244;2022-07-06T04:53:49;18.40;99.90
22813;DHT22;11573;51.334;3.244;2022-07-06T04:56:16;18.10;99.90
22813;DHT22;11573;51.334;3.244;2022-07-06T04:58:43;17.70;99.90
22813;DHT22;11573;51.334;3.244;2022-07-06T05:01:13;17.40;99.90
22813;DHT22;11573;51.334;3.244;2022-07-06T05:03:41;17.20;99.90
22813;DHT22;11573;51.334;3.244;2022-07-06T05:06:10;17.00;99.90
22813;DHT22;11573;51.334;3.244;2022-07-06T05:08:37;16.80;99.90
22813;DHT22;11573;51.334;3.244;2022-07-06T05:11:05;16.80;99.90
22813;DHT22;11573;51.334;3.244;2022-07-06T05:13:32;16.70;99.90
22813;DHT22;11573;51.334;3.244;2022-07-06T05:15:59;16.60;99.90
22813;DHT22;11573;51.334;3.244;2022-07-06T05:18:26;16.60;99.90
22813;DHT22;11573;51.334;3.244;2022-07-06T05:20:54;16.60;99.90
22813;DHT22;11573;51.334;3.244;2022-07-06T05:23:22;16.50;99.90
22813;DHT22;11573;51.334;3.244;2022-07-06T05:25:49;16.60;99.90
22813;DHT22;11573;51.334;3.244;2022-07-06T05:28:16;16.60;99.90
22813;DHT22;11573;51.334;3.244;2022-07-06T05:30:44;16.70;99.90
22813;DHT22;11573;51.334;3.244;2022-07-06T05:33:12;17.00;99.90
22813;DHT22;11573;51.334;3.244;2022-07-06T05:35:39;17.40;99.90
22813;DHT22;11573;51.334;3.244;2022-07-06T05:38:18;17.80;99.90
22813;DHT22;11573;51.334;3.244;2022-07-06T05:40:46;18.20;99.90
22813;DHT22;11573;51.334;3.244;2022-07-06T05:43:13;18.50;99.90
22813;DHT22;11573;51.334;3.244;2022-07-06T05:45:41;18.60;99.90
22813;DHT22;11573;51.334;3.244;2022-07-06T05:48:09;19.00;99.90
22813;DHT22;11573;51.334;3.244;2022-07-06T05:50:55;19.00;99.90
22813;DHT22;11573;51.334;3.244;2022-07-06T05:53:22;19.30;99.90
22813;DHT22;11573;51.334;3.244;2022-07-06T05:55:52;19.30;99.90
22813;DHT22;11573;51.334;3.244;2022-07-06T05:58:20;19.30;99.90
22813;DHT22;11573;51.334;3.244;2022-07-06T06:00:48;19.40;99.90
22813;DHT22;11573;51.334;3.244;2022-07-06T06:03:18;19.30;99.90
22813;DHT22;11573;51.334;3.244;2022-07-06T06:05:47;19.60;99.90
22813;DHT22;11573;51.334;3.244;2022-07-06T06:08:17;19.60;99.90
22813;DHT22;11573;51.334;3.244;2022-07-06T06:10:44;19.40;99.90
22813;DHT22;11573;51.334;3.244;2022-07-06T06:13:14;19.20;99.90
22813;DHT22;11573;51.334;3.244;2022-07-06T06:15:41;19.20;99.90
22813;DHT22;11573;51.334;3.244;2022-07-06T06:18:08;19.10;99.90
22813;DHT22;11573;51.334;3.244;2022-07-06T06:20:36;18.80;99.90
22813;DHT22;11573;51.334;3.244;2022-07-06T06:23:03;18.80;99.90
22813;DHT22;11573;51.334;3.244;2022-07-06T06:28:00;18.90;99.90
22813;DHT22;11573;51.334;3.244;2022-07-06T06:30:27;18.90;99.90
22813;DHT22;11573;51.334;3.244;2022-07-06T06:33:16;18.90;99.90
22813;DHT22;11573;51.334;3.244;2022-07-06T06:35:45;19.00;99.90
22813;DHT22;11573;51.334;3.244;2022-07-06T06:38:14;18.90;99.90
22813;DHT22;11573;51.334;3.244;2022-07-06T06:40:41;18.90;99.90
22813;DHT22;11573;51.334;3.244;2022-07-06T06:43:08;19.00;99.90
22813;DHT22;11573;51.334;3.244;2022-07-06T06:45:43;19.20;99.90
22813;DHT22;11573;51.334;3.244;2022-07-06T06:48:11;19.30;99.90
22813;DHT22;11573;51.334;3.244;2022-07-06T06:50:44;19.20;99.90
22813;DHT22;11573;51.334;3.244;2022-07-06T06:53:11;19.20;99.90
22813;DHT22;11573;51.334;3.244;2022-07-06T06:55:38;19.30;99.90
22813;DHT22;11573;51.334;3.244;2022-07-06T06:58:05;19.20;99.90
22813;DHT22;11573;51.334;3.244;2022-07-06T07:00:32;19.30;99.90
22813;DHT22;11573;51.334;3.244;2022-07-06T07:02:58;19.20;99.90
22813;DHT22;11573;51.334;3.244;2022-07-06T07:05:26;19.50;99.90
22813;DHT22;11573;51.334;3.244;2022-07-06T07:07:53;19.60;99.90
22813;DHT22;11573;51.334;3.244;2022-07-06T07:10:29;19.50;99.90
22813;DHT22;11573;51.334;3.244;2022-07-06T07:12:56;19.70;99.90
22813;DHT22;11573;51.334;3.244;2022-07-06T07:15:23;19.90;99.90
22813;DHT22;11573;51.334;3.244;2022-07-06T07:17:50;20.00;99.90
22813;DHT22;11573;51.334;3.244;2022-07-06T07:20:17;20.10;99.90
22813;DHT22;11573;51.334;3.244;2022-07-06T07:22:44;20.30;99.90
22813;DHT22;11573;51.334;3.244;2022-07-06T07:25:11;20.30;99.90
22813;DHT22;11573;51.334;3.244;2022-07-06T07:27:38;20.40;99.90
22813;DHT22;11573;51.334;3.244;2022-07-06T07:30:06;20.40;99.90
22813;DHT22;11573;51.334;3.244;2022-07-06T07:32:33;20.70;99.90
22813;DHT22;11573;51.334;3.244;2022-07-06T07:35:00;21.20;99.90
22813;DHT22;11573;51.334;3.244;2022-07-06T07:37:27;21.50;99.90
22813;DHT22;11573;51.334;3.244;2022-07-06T07:39:54;21.80;99.90
22813;DHT22;11573;51.334;3.244;2022-07-06T07:42:21;22.20;99.90
22813;DHT22;11573;51.334;3.244;2022-07-06T07:44:48;22.20;99.90
22813;DHT22;11573;51.334;3.244;2022-07-06T07:47:15;22.30;99.90
22813;DHT22;11573;51.334;3.244;2022-07-06T07:49:42;22.60;99.90
22813;DHT22;11573;51.334;3.244;2022-07-06T07:52:09;23.00;99.90
22813;DHT22;11573;51.334;3.244;2022-07-06T07:54:36;23.30;99.90
22813;DHT22;11573;51.334;3.244;2022-07-06T07:57:10;23.40;99.90
22813;DHT22;11573;51.334;3.244;2022-07-06T07:59:37;23.40;99.90
22813;DHT22;11573;51.334;3.244;2022-07-06T08:02:05;23.40;99.90
22813;DHT22;11573;51.334;3.244;2022-07-06T08:04:31;23.50;99.90
22813;DHT22;11573;51.334;3.244;2022-07-06T08:06:59;23.00;99.90
22813;DHT22;11573;51.334;3.244;2022-07-06T08:09:27;22.90;99.90
22813;DHT22;11573;51.334;3.244;2022-07-06T08:11:54;23.10;99.90
22813;DHT22;11573;51.334;3.244;2022-07-06T08:14:21;22.70;99.90
22813;DHT22;11573;51.334;3.244;2022-07-06T08:16:48;22.70;99.90
22813;DHT22;11573;51.334;3.244;2022-07-06T08:19:15;22.80;99.90
22813;DHT22;11573;51.334;3.244;2022-07-06T08:21:43;22.50;99.90
22813;DHT22;11573;51.334;3.244;2022-07-06T08:24:10;22.40;99.90
22813;DHT22;11573;51.334;3.244;2022-07-06T08:26:37;22.50;99.90
22813;DHT22;11573;51.334;3.244;2022-07-06T08:29:05;22.00;99.90
22813;DHT22;11573;51.334;3.244;2022-07-06T08:31:32;22.40;99.90
22813;DHT22;11573;51.334;3.244;2022-07-06T08:34:21;22.60;99.90
22813;DHT22;11573;51.334;3.244;2022-07-06T08:36:49;23.30;99.90
22813;DHT22;11573;51.334;3.244;2022-07-06T08:39:16;23.20;99.90
22813;DHT22;11573;51.334;3.244;2022-07-06T08:41:44;23.60;99.90
22813;DHT22;11573;51.334;3.244;2022-07-06T08:44:15;24.20;99.90
22813;DHT22;11573;51.334;3.244;2022-07-06T08:46:43;24.10;99.90
22813;DHT22;11573;51.334;3.244;2022-07-06T08:49:16;23.70;99.90
22813;DHT22;11573;51.334;3.244;2022-07-06T08:51:45;23.90;99.90
22813;DHT22;11573;51.334;3.244;2022-07-06T08:54:12;23.80;99.90
22813;DHT22;11573;51.334;3.244;2022-07-06T08:56:40;23.60;99.90
22813;DHT22;11573;51.334;3.244;2022-07-06T08:59:15;23.60;99.90
22813;DHT22;11573;51.334;3.244;2022-07-06T09:01:44;23.40;99.90
22813;DHT22;11573;51.334;3.244;2022-07-06T09:04:12;23.30;99.90
22813;DHT22;11573;51.334;3.244;2022-07-06T09:06:42;23.00;99.90
22813;DHT22;11573;51.334;3.244;2022-07-06T09:09:09;23.40;99.90
22813;DHT22;11573;51.334;3.244;2022-07-06T09:11:36;23.40;99.90
22813;DHT22;11573;51.334;3.244;2022-07-06T09:14:04;23.00;99.90
22813;DHT22;11573;51.334;3.244;2022-07-06T09:16:31;23.40;99.90
22813;DHT22;11573;51.334;3.244;2022-07-06T09:19:06;23.50;99.90
22813;DHT22;11573;51.334;3.244;2022-07-06T09:21:34;23.60;99.90
22813;DHT22;11573;51.334;3.244;2022-07-06T09:24:12;23.80;99.90
22813;DHT22;11573;51.334;3.244;2022-07-06T09:26:40;23.60;99.90
22813;DHT22;11573;51.334;3.244;2022-07-06T09:29:08;23.10;99.90
22813;DHT22;11573;51.334;3.244;2022-07-06T09:31:36;23.20;99.90
22813;DHT22;11573;51.334;3.244;2022-07-06T09:34:07;23.30;99.90
22813;DHT22;11573;51.334;3.244;2022-07-06T09:36:42;23.10;99.90
22813;DHT22;11573;51.334;3.244;2022-07-06T09:39:28;23.10;99.90
22813;DHT22;11573;51.334;3.244;2022-07-06T09:41:58;23.30;99.90
22813;DHT22;11573;51.334;3.244;2022-07-06T09:44:30;22.80;99.90
22813;DHT22;11573;51.334;3.244;2022-07-06T09:47:00;23.00;99.90
22813;DHT22;11573;51.334;3.244;2022-07-06T09:49:27;22.90;99.90
22813;DHT22;11573;51.334;3.244;2022-07-06T09:51:56;23.20;99.90
22813;DHT22;11573;51.334;3.244;2022-07-06T09:54:24;23.50;99.90
22813;DHT22;11573;51.334;3.244;2022-07-06T09:56:53;23.90;99.90
22813;DHT22;11573;51.334;3.244;2022-07-06T09:59:22;24.20;99.90
22813;DHT22;11573;51.334;3.244;2022-07-06T10:01:54;24.20;99.90
22813;DHT22;11573;51.334;3.244;2022-07-06T10:04:25;24.10;99.90
22813;DHT22;11573;51.334;3.244;2022-07-06T10:06:53;24.10;99.90
22813;DHT22;11573;51.334;3.244;2022-07-06T10:09:22;23.50;99.90
22813;DHT22;11573;51.334;3.244;2022-07-06T10:11:52;23.40;99.90
22813;DHT22;11573;51.334;3.244;2022-07-06T10:14:21;23.60;99.90
22813;DHT22;11573;51.334;3.244;2022-07-06T10:16:49;23.90;99.90
22813;DHT22;11573;51.334;3.244;2022-07-06T10:19:18;24.00;99.90
22813;DHT22;11573;51.334;3.244;2022-07-06T10:21:46;23.90;99.90
22813;DHT22;11573;51.334;3.244;2022-07-06T10:24:14;23.80;99.90
22813;DHT22;11573;51.334;3.244;2022-07-06T10:26:43;23.70;99.90
22813;DHT22;11573;51.334;3.244;2022-07-06T10:29:11;23.70;99.90
22813;DHT22;11573;51.334;3.244;2022-07-06T10:31:45;23.50;99.90
22813;DHT22;11573;51.334;3.244;2022-07-06T10:34:14;23.30;99.90
22813;DHT22;11573;51.334;3.244;2022-07-06T10:36:43;23.40;99.90
22813;DHT22;11573;51.334;3.244;2022-07-06T10:39:11;23.60;99.90
22813;DHT22;11573;51.334;3.244;2022-07-06T10:41:56;23.80;99.90
22813;DHT22;11573;51.334;3.244;2022-07-06T10:44:26;23.70;99.90
22813;DHT22;11573;51.334;3.244;2022-07-06T10:46:55;24.10;99.90
22813;DHT22;11573;51.334;3.244;2022-07-06T10:49:24;24.30;99.90
22813;DHT22;11573;51.334;3.244;2022-07-06T10:52:11;24.40;99.90
22813;DHT22;11573;51.334;3.244;2022-07-06T10:54:39;23.80;99.90
22813;DHT22;11573;51.334;3.244;2022-07-06T10:57:13;24.00;99.90
22813;DHT22;11573;51.334;3.244;2022-07-06T11:00:00;23.60;99.90
22813;DHT22;11573;51.334;3.244;2022-07-06T11:02:38;23.60;99.90
22813;DHT22;11573;51.334;3.244;2022-07-06T11:05:11;23.90;99.90
22813;DHT22;11573;51.334;3.244;2022-07-06T11:07:50;23.90;99.90
22813;DHT22;11573;51.334;3.244;2022-07-06T11:10:18;23.60;99.90
22813;DHT22;11573;51.334;3.244;2022-07-06T11:12:45;23.30;99.90
22813;DHT22;11573;51.334;3.244;2022-07-06T11:15:12;23.20;99.90
22813;DHT22;11573;51.334;3.244;2022-07-06T11:18:12;23.30;99.90
22813;DHT22;11573;51.334;3.244;2022-07-06T11:20:40;23.40;99.90
22813;DHT22;11573;51.334;3.244;2022-07-06T11:23:07;23.40;99.90
22813;DHT22;11573;51.334;3.244;2022-07-06T11:25:34;23.00;99.90
22813;DHT22;11573;51.334;3.244;2022-07-06T11:28:01;22.90;99.90
22813;DHT22;11573;51.334;3.244;2022-07-06T11:30:28;23.00;99.90
22813;DHT22;11573;51.334;3.244;2022-07-06T11:33:01;23.00;99.90
22813;DHT22;11573;51.334;3.244;2022-07-06T11:35:28;22.80;99.90
22813;DHT22;11573;51.334;3.244;2022-07-06T11:37:55;22.60;99.90
22813;DHT22;11573;51.334;3.244;2022-07-06T11:40:22;22.50;99.90
22813;DHT22;11573;51.334;3.244;2022-07-06T11:42:53;22.70;99.90
22813;DHT22;11573;51.334;3.244;2022-07-06T11:45:27;22.60;99.90
22813;DHT22;11573;51.334;3.244;2022-07-06T11:48:10;22.70;99.90
22813;DHT22;11573;51.334;3.244;2022-07-06T11:50:37;22.70;99.90
22813;DHT22;11573;51.334;3.244;2022-07-06T11:53:04;22.50;99.90
22813;DHT22;11573;51.334;3.244;2022-07-06T11:55:33;22.70;99.90
22813;DHT22;11573;51.334;3.244;2022-07-06T11:58:01;22.70;99.90
22813;DHT22;11573;51.334;3.244;2022-07-06T12:00:29;22.50;99.90
22813;DHT22;11573;51.334;3.244;2022-07-06T12:03:02;22.30;99.90
22813;DHT22;11573;51.334;3.244;2022-07-06T12:05:32;22.50;99.90
22813;DHT22;11573;51.334;3.244;2022-07-06T12:08:04;22.50;99.90
22813;DHT22;11573;51.334;3.244;2022-07-06T12:10:32;22.50;99.90
22813;DHT22;11573;51.334;3.244;2022-07-06T12:13:03;22.50;99.90
22813;DHT22;11573;51.334;3.244;2022-07-06T12:15:33;22.50;99.90
22813;DHT22;11573;51.334;3.244;2022-07-06T12:18:00;22.40;99.90
22813;DHT22;11573;51.334;3.244;2022-07-06T12:20:28;22.50;99.90
22813;DHT22;11573;51.334;3.244;2022-07-06T12:23:05;22.60;99.90
22813;DHT22;11573;51.334;3.244;2022-07-06T12:25:33;22.80;99.90
22813;DHT22;11573;51.334;3.244;2022-07-06T12:28:01;22.70;99.90
22813;DHT22;11573;51.334;3.244;2022-07-06T12:30:29;22.60;99.90
22813;DHT22;11573;51.334;3.244;2022-07-06T12:33:16;22.40;99.90
22813;DHT22;11573;51.334;3.244;2022-07-06T12:35:45;22.60;99.90
22813;DHT22;11573;51.334;3.244;2022-07-06T12:38:12;22.40;99.90
22813;DHT22;11573;51.334;3.244;2022-07-06T12:40:39;22.50;99.90
22813;DHT22;11573;51.334;3.244;2022-07-06T12:43:07;22.70;99.90
22813;DHT22;11573;51.334;3.244;2022-07-06T12:45:34;22.90;99.90
22813;DHT22;11573;51.334;3.244;2022-07-06T12:48:05;23.00;99.90
22813;DHT22;11573;51.334;3.244;2022-07-06T12:50:35;23.00;99.90
22813;DHT22;11573;51.334;3.244;2022-07-06T12:53:04;23.30;99.90
22813;DHT22;11573;51.334;3.244;2022-07-06T12:55:32;23.40;99.90
22813;DHT22;11573;51.334;3.244;2022-07-06T12:57:59;23.20;99.90
22813;DHT22;11573;51.334;3.244;2022-07-06T13:00:26;22.90;99.90
22813;DHT22;11573;51.334;3.244;2022-07-06T13:02:54;22.40;99.90
22813;DHT22;11573;51.334;3.244;2022-07-06T13:05:37;22.50;99.90
22813;DHT22;11573;51.334;3.244;2022-07-06T13:08:06;22.50;99.90
22813;DHT22;11573;51.334;3.244;2022-07-06T13:10:33;22.50;99.90
22813;DHT22;11573;51.334;3.244;2022-07-06T13:13:03;22.60;99.90
22813;DHT22;11573;51.334;3.244;2022-07-06T13:15:30;22.40;99.90
22813;DHT22;11573;51.334;3.244;2022-07-06T13:17:57;22.10;99.90
22813;DHT22;11573;51.334;3.244;2022-07-06T13:20:24;22.40;99.90
22813;DHT22;11573;51.334;3.244;2022-07-06T13:22:51;22.40;99.90
22813;DHT22;11573;51.334;3.244;2022-07-06T13:25:18;22.40;99.90
22813;DHT22;11573;51.334;3.244;2022-07-06T13:27:46;22.50;99.90
22813;DHT22;11573;51.334;3.244;2022-07-06T13:30:13;22.60;99.90
22813;DHT22;11573;51.334;3.244;2022-07-06T13:32:40;22.70;99.90
22813;DHT22;11573;51.334;3.244;2022-07-06T13:35:07;22.60;99.90
22813;DHT22;11573;51.334;3.244;2022-07-06T13:37:36;22.40;99.90
22813;DHT22;11573;51.334;3.244;2022-07-06T13:40:04;22.60;99.90
22813;DHT22;11573;51.334;3.244;2022-07-06T13:42:31;22.80;99.90
22813;DHT22;11573;51.334;3.244;2022-07-06T13:44:58;22.70;99.90
22813;DHT22;11573;51.334;3.244;2022-07-06T13:47:25;22.70;99.90
22813;DHT22;11573;51.334;3.244;2022-07-06T13:49:52;22.70;99.90
22813;DHT22;11573;51.334;3.244;2022-07-06T13:52:19;22.80;99.90
22813;DHT22;11573;51.334;3.244;2022-07-06T13:54:47;22.90;99.90
22813;DHT22;11573;51.334;3.244;2022-07-06T13:57:14;23.20;99.90
22813;DHT22;11573;51.334;3.244;2022-07-06T13:59:41;23.30;99.90
22813;DHT22;11573;51.334;3.244;2022-07-06T14:02:09;23.50;99.90
22813;DHT22;11573;51.334;3.244;2022-07-06T14:04:36;23.60;99.90
22813;DHT22;11573;51.334;3.244;2022-07-06T14:07:04;23.50;99.90
22813;DHT22;11573;51.334;3.244;2022-07-06T14:09:31;23.20;99.90
22813;DHT22;11573;51.334;3.244;2022-07-06T14:11:58;23.50;99.90
22813;DHT22;11573;51.334;3.244;2022-07-06T14:14:27;23.20;99.90
22813;DHT22;11573;51.334;3.244;2022-07-06T14:16:54;23.10;99.90
22813;DHT22;11573;51.334;3.244;2022-07-06T14:19:23;22.80;99.90
22813;DHT22;11573;51.334;3.244;2022-07-06T14:21:50;22.80;99.90
22813;DHT22;11573;51.334;3.244;2022-07-06T14:24:17;23.00;99.90
22813;DHT22;11573;51.334;3.244;2022-07-06T14:26:44;23.30;99.90
22813;DHT22;11573;51.334;3.244;2022-07-06T14:29:12;23.20;99.90
22813;DHT22;11573;51.334;3.244;2022-07-06T14:31:39;23.00;99.90
22813;DHT22;11573;51.334;3.244;2022-07-06T14:34:06;22.80;99.90
22813;DHT22;11573;51.334;3.244;2022-07-06T14:36:33;22.90;99.90
22813;DHT22;11573;51.334;3.244;2022-07-06T14:39:01;23.10;99.90
22813;DHT22;11573;51.334;3.244;2022-07-06T14:41:28;23.20;99.90
22813;DHT22;11573;51.334;3.244;2022-07-06T14:43:55;23.40;99.90
22813;DHT22;11573;51.334;3.244;2022-07-06T14:46:23;23.60;99.90
22813;DHT22;11573;51.334;3.244;2022-07-06T14:48:50;23.70;99.90
22813;DHT22;11573;51.334;3.244;2022-07-06T14:51:17;23.40;99.90
22813;DHT22;11573;51.334;3.244;2022-07-06T14:53:44;23.60;99.90
22813;DHT22;11573;51.334;3.244;2022-07-06T14:56:11;23.70;99.90
22813;DHT22;11573;51.334;3.244;2022-07-06T14:58:39;23.80;99.90
22813;DHT22;11573;51.334;3.244;2022-07-06T15:01:19;23.60;99.90
22813;DHT22;11573;51.334;3.244;2022-07-06T15:03:46;23.90;99.90
22813;DHT22;11573;51.334;3.244;2022-07-06T15:06:13;23.90;99.90
22813;DHT22;11573;51.334;3.244;2022-07-06T15:09:00;23.80;99.90
22813;DHT22;11573;51.334;3.244;2022-07-06T15:11:31;23.80;99.90
22813;DHT22;11573;51.334;3.244;2022-07-06T15:13:58;24.10;99.90
22813;DHT22;11573;51.334;3.244;2022-07-06T15:16:25;23.60;99.90
22813;DHT22;11573;51.334;3.244;2022-07-06T15:18:53;24.00;99.90
22813;DHT22;11573;51.334;3.244;2022-07-06T15:21:20;24.00;99.90
22813;DHT22;11573;51.334;3.244;2022-07-06T15:23:47;24.00;99.90
22813;DHT22;11573;51.334;3.244;2022-07-06T15:26:14;24.00;99.90
22813;DHT22;11573;51.334;3.244;2022-07-06T15:28:42;23.90;99.90
22813;DHT22;11573;51.334;3.244;2022-07-06T15:31:09;23.80;99.90
22813;DHT22;11573;51.334;3.244;2022-07-06T15:33:36;23.70;99.90
22813;DHT22;11573;51.334;3.244;2022-07-06T15:36:03;23.80;99.90
22813;DHT22;11573;51.334;3.244;2022-07-06T15:38:32;23.60;99.90
22813;DHT22;11573;51.334;3.244;2022-07-06T15:41:02;23.50;99.90